Time;durP1;ratioP1;P1;durP2;ratioP2;P2;SDS_P1;SDS_P2;PMS_P1;PMS_P2;Temp;Humidity;BMP_temperature;BMP_pressure;BME280_temperature;BME280_humidity;BME280_pressure;Samples;Min_cycle;Max_cycle;Signal;HPM_P1;HPM_P2
2021/12/19 00:02:09;;;;;;;52.85;24.95;;;1.40;84.70;;;;;;5054845;28;20385;-74
2021/12/19 00:09:44;;;;;;;48.63;24.33;;;1.30;83.80;;;;;;5055226;28;20035;-73
2021/12/19 00:12:10;;;;;;;51.67;25.60;;;1.10;84.50;;;;;;5054953;28;20116;-74
2021/12/19 00:14:36;;;;;;;48.00;24.55;;;1.20;84.70;;;;;;5054782;28;20048;-73
2021/12/19 00:17:02;;;;;;;47.33;23.95;;;1.20;85.00;;;;;;5054881;28;20029;-73
2021/12/19 00:19:28;;;;;;;51.58;25.73;;;1.20;85.00;;;;;;5054779;28;20488;-73
2021/12/19 00:21:54;;;;;;;61.25;28.73;;;1.30;85.10;;;;;;5054741;28;20389;-73
2021/12/19 00:24:19;;;;;;;56.95;27.48;;;1.30;85.00;;;;;;5053849;28;20045;-73
2021/12/19 00:26:45;;;;;;;48.90;24.27;;;1.30;84.90;;;;;;5070044;28;20557;-74
2021/12/19 00:29:11;;;;;;;49.55;25.13;;;1.30;85.00;;;;;;5054441;28;20021;-73
2021/12/19 00:31:37;;;;;;;46.22;22.65;;;1.40;84.90;;;;;;5054431;28;20496;-73
2021/12/19 00:34:04;;;;;;;55.33;26.15;;;1.40;84.70;;;;;;5054292;28;20045;-74
2021/12/19 00:36:30;;;;;;;57.40;28.63;;;1.40;85.30;;;;;;5054276;28;20025;-73
2021/12/19 00:38:56;;;;;;;59.53;27.98;;;1.40;84.60;;;;;;5054198;28;20124;-73
2021/12/19 00:41:22;;;;;;;58.80;29.13;;;1.50;84.60;;;;;;5054196;28;20036;-74
2021/12/19 00:43:54;;;;;;;58.60;27.33;;;1.50;84.60;;;;;;5036303;28;20044;-74
2021/12/19 00:46:23;;;;;;;56.72;28.10;;;1.50;84.60;;;;;;5054311;28;20024;-73
2021/12/19 00:48:52;;;;;;;59.17;27.20;;;1.50;84.50;;;;;;5054019;28;20356;-73
2021/12/19 00:51:22;;;;;;;58.03;26.95;;;1.50;84.30;;;;;;5054031;28;20025;-73
2021/12/19 00:53:48;;;;;;;56.90;27.48;;;1.60;84.10;;;;;;5053746;28;20484;-73
2021/12/19 00:56:15;;;;;;;56.97;27.00;;;1.50;84.00;;;;;;5054025;28;20028;-75
2021/12/19 00:58:42;;;;;;;60.10;28.67;;;1.50;84.00;;;;;;5053902;28;20409;-73
2021/12/19 01:01:09;;;;;;;56.58;27.65;;;1.50;84.10;;;;;;5053730;28;20041;-73
2021/12/19 01:03:36;;;;;;;50.45;22.90;;;1.40;84.10;;;;;;5053893;28;20063;-74
2021/12/19 01:06:03;;;;;;;50.70;25.15;;;1.40;84.10;;;;;;5053905;28;20025;-74
2021/12/19 01:08:29;;;;;;;49.05;24.33;;;1.40;84.00;;;;;;5053804;28;20025;-74
2021/12/19 01:10:54;;;;;;;50.22;25.80;;;1.40;84.00;;;;;;5053625;28;20028;-73
2021/12/19 01:13:20;;;;;;;55.53;27.05;;;1.40;83.80;;;;;;5053749;28;20118;-73
2021/12/19 01:15:47;;;;;;;53.25;25.13;;;1.40;83.70;;;;;;5053764;28;20019;-73
2021/12/19 01:18:13;;;;;;;61.55;29.20;;;1.40;83.90;;;;;;5053620;28;20036;-73
2021/12/19 01:20:40;;;;;;;52.55;25.85;;;1.40;84.00;;;;;;5053466;28;20488;-73
2021/12/19 01:23:06;;;;;;;53.97;26.08;;;1.50;84.10;;;;;;5053561;28;20495;-74
2021/12/19 01:25:32;;;;;;;59.28;27.58;;;1.50;84.20;;;;;;5053395;28;20611;-73
2021/12/19 01:27:58;;;;;;;51.47;25.02;;;1.50;83.80;;;;;;5053472;28;20049;-73
2021/12/19 01:30:24;;;;;;;51.75;24.85;;;1.40;83.30;;;;;;5053401;28;20056;-73
2021/12/19 01:32:50;;;;;;;44.20;22.75;;;1.20;83.00;;;;;;5053207;28;20072;-73
2021/12/19 01:35:18;;;;;;;38.08;21.17;;;1.00;83.20;;;;;;5053358;28;20036;-73
2021/12/19 01:37:44;;;;;;;43.85;21.88;;;0.90;83.60;;;;;;5053315;28;20029;-73
2021/12/19 01:40:13;;;;;;;39.88;21.08;;;0.90;84.00;;;;;;5053371;28;20119;-73
2021/12/19 01:42:41;;;;;;;45.63;22.63;;;0.90;84.00;;;;;;5053320;28;20028;-73
2021/12/19 01:45:11;;;;;;;40.60;20.40;;;0.90;83.60;;;;;;5053385;28;20496;-73
2021/12/19 01:47:37;;;;;;;37.90;20.33;;;0.90;83.60;;;;;;5053263;28;20060;-73
2021/12/19 01:50:04;;;;;;;43.28;22.52;;;0.90;83.60;;;;;;5053064;28;20025;-76
2021/12/19 01:52:30;;;;;;;44.17;21.80;;;0.80;83.50;;;;;;5052914;28;20029;-73
2021/12/19 01:54:57;;;;;;;42.55;21.27;;;0.80;83.60;;;;;;5053090;28;20476;-73
2021/12/19 01:57:25;;;;;;;42.40;19.83;;;0.70;83.80;;;;;;5053102;28;20025;-73
2021/12/19 01:59:54;;;;;;;39.33;19.25;;;0.70;83.90;;;;;;5052855;28;20091;-73
2021/12/19 02:02:21;;;;;;;39.58;19.65;;;0.80;83.90;;;;;;5052958;28;20521;-73
2021/12/19 02:04:47;;;;;;;38.53;19.52;;;0.70;83.40;;;;;;5052990;28;20025;-73
2021/12/19 02:07:13;;;;;;;38.05;18.85;;;0.80;83.20;;;;;;5053024;28;20435;-75
2021/12/19 02:09:41;;;;;;;35.10;18.25;;;0.80;83.20;;;;;;5053074;28;20047;-75
2021/12/19 02:12:07;;;;;;;39.22;18.88;;;0.90;83.50;;;;;;5052975;28;20432;-75
2021/12/19 02:14:32;;;;;;;37.25;18.48;;;0.90;83.30;;;;;;5052897;28;20021;-73
2021/12/19 02:16:58;;;;;;;39.17;20.33;;;0.90;82.80;;;;;;5052889;28;20035;-73
2021/12/19 02:19:24;;;;;;;37.50;18.65;;;1.00;82.40;;;;;;5052849;28;20029;-74
2021/12/19 02:21:51;;;;;;;38.35;19.85;;;0.90;81.80;;;;;;5052774;28;20033;-73
2021/12/19 02:24:17;;;;;;;38.70;19.55;;;0.60;82.30;;;;;;5034973;28;20082;-73
2021/12/19 02:26:43;;;;;;;43.80;21.65;;;0.40;83.70;;;;;;5052654;28;20021;-73
2021/12/19 02:29:11;;;;;;;39.88;20.50;;;0.30;84.60;;;;;;5053459;28;20547;-73
2021/12/19 02:31:37;;;;;;;39.50;19.65;;;0.30;85.30;;;;;;5053325;28;20036;-74
2021/12/19 02:34:09;;;;;;;39.30;20.02;;;0.30;85.40;;;;;;5053157;28;20405;-73
2021/12/19 02:49:48;;;;;;;32.83;16.88;;;0.60;83.90;;;;;;5056660;28;20539;-74
2021/12/19 02:52:19;;;;;;;34.05;16.08;;;0.60;83.40;;;;;;5056405;28;20025;-73
2021/12/19 02:54:44;;;;;;;32.15;16.20;;;0.70;83.10;;;;;;5056299;28;20057;-73
2021/12/19 02:57:10;;;;;;;33.88;17.60;;;0.70;82.60;;;;;;5056346;28;20437;-73
2021/12/19 02:59:36;;;;;;;34.88;17.58;;;0.70;82.30;;;;;;5055724;28;20029;-73
2021/12/19 03:02:02;;;;;;;33.55;17.98;;;0.70;82.30;;;;;;5056148;28;20527;-73
2021/12/19 03:04:28;;;;;;;40.65;19.90;;;0.70;82.50;;;;;;5055995;28;20085;-73
2021/12/19 03:06:54;;;;;;;38.03;18.13;;;0.60;82.90;;;;;;5056140;28;20029;-73
2021/12/19 03:12:31;;;;;;;41.85;20.92;;;0.60;82.90;;;;;;5046797;28;20079;-74
2021/12/19 03:17:59;;;;;;;45.53;23.42;;;0.40;84.00;;;;;;5055677;28;20039;-73
2021/12/19 03:20:27;;;;;;;45.97;22.13;;;0.40;84.50;;;;;;5055767;28;20053;-73
2021/12/19 03:22:53;;;;;;;49.13;22.73;;;0.20;85.60;;;;;;5037730;28;20029;-74
2021/12/19 03:25:19;;;;;;;47.95;21.52;;;0.20;85.70;;;;;;5055823;28;20422;-73
2021/12/19 03:27:45;;;;;;;46.03;22.20;;;0.20;85.80;;;;;;5055658;28;20021;-73
2021/12/19 03:30:11;;;;;;;43.15;21.60;;;0.30;85.90;;;;;;5055416;28;20033;-74
2021/12/19 03:32:37;;;;;;;52.70;24.17;;;0.40;85.60;;;;;;5055428;28;20470;-73
2021/12/19 03:35:03;;;;;;;48.50;21.77;;;0.40;85.50;;;;;;5055515;28;20075;-73
2021/12/19 03:37:29;;;;;;;42.13;19.83;;;0.40;85.40;;;;;;5055391;28;20108;-74
2021/12/19 03:40:08;;;;;;;42.03;19.88;;;0.50;85.30;;;;;;5055473;28;20056;-73
2021/12/19 03:42:45;;;;;;;43.78;21.25;;;0.50;85.10;;;;;;5055359;28;20378;-73
2021/12/19 03:45:13;;;;;;;44.45;19.67;;;0.60;84.20;;;;;;5055382;28;20497;-74
2021/12/19 03:47:39;;;;;;;41.55;19.30;;;0.50;84.00;;;;;;5055049;28;20074;-74
2021/12/19 03:50:08;;;;;;;42.67;19.30;;;0.50;84.00;;;;;;5055340;28;20025;-73
2021/12/19 03:52:34;;;;;;;39.40;19.38;;;0.50;84.20;;;;;;5054658;28;20162;-74
2021/12/19 03:55:00;;;;;;;41.05;19.98;;;0.50;83.90;;;;;;5055258;28;20485;-73
2021/12/19 03:57:26;;;;;;;41.17;19.58;;;0.50;83.90;;;;;;5054950;28;20095;-73
2021/12/19 03:59:52;;;;;;;37.67;18.83;;;0.50;83.90;;;;;;5035931;28;20032;-74
2021/12/19 04:02:25;;;;;;;39.20;19.67;;;0.60;83.80;;;;;;5054822;28;20037;-73
2021/12/19 04:04:51;;;;;;;38.50;18.35;;;0.60;83.60;;;;;;5054945;28;20033;-73
2021/12/19 04:07:17;;;;;;;37.92;18.77;;;0.60;83.40;;;;;;5054865;28;20566;-74
2021/12/19 04:09:43;;;;;;;41.10;19.00;;;0.60;83.20;;;;;;5054875;28;20052;-73
2021/12/19 04:12:09;;;;;;;46.97;21.90;;;0.60;83.40;;;;;;5054904;28;20060;-73
2021/12/19 04:14:35;;;;;;;53.72;22.83;;;0.70;83.80;;;;;;5054868;28;20029;-73
2021/12/19 04:17:00;;;;;;;42.47;19.92;;;0.70;83.80;;;;;;5054654;28;20029;-73
2021/12/19 04:19:26;;;;;;;45.53;22.00;;;0.70;83.60;;;;;;5054689;28;20037;-73
2021/12/19 04:21:52;;;;;;;49.25;22.35;;;0.70;83.50;;;;;;5036541;28;20106;-73
2021/12/19 04:24:18;;;;;;;50.80;24.45;;;0.60;83.50;;;;;;5054668;28;20458;-74
2021/12/19 04:26:43;;;;;;;49.28;22.77;;;0.50;83.80;;;;;;5054618;28;20469;-73
2021/12/19 04:29:10;;;;;;;43.85;19.73;;;0.40;84.20;;;;;;5054624;28;20040;-73
2021/12/19 04:31:36;;;;;;;48.88;21.95;;;0.40;84.00;;;;;;5054505;28;20017;-73
2021/12/19 04:34:02;;;;;;;44.20;20.98;;;0.40;84.30;;;;;;5054149;28;20049;-73
2021/12/19 04:36:33;;;;;;;48.03;20.90;;;0.40;84.40;;;;;;5054389;28;20025;-73
2021/12/19 04:39:19;;;;;;;43.85;21.00;;;0.40;84.40;;;;;;5054235;28;20060;-74
2021/12/19 04:44:41;;;;;;;38.25;17.55;;;0.20;83.60;;;;;;5054322;28;20017;-73
2021/12/19 04:55:36;;;;;;;38.00;17.90;;;0.00;84.30;;;;;;5054229;28;20025;-73
2021/12/19 04:58:20;;;;;;;32.58;16.35;;;0.00;84.20;;;;;;5053818;28;20040;-74
2021/12/19 05:01:21;;;;;;;33.33;16.48;;;0.10;84.10;;;;;;5053852;28;20437;-73
2021/12/19 05:14:22;;;;;;;37.10;17.48;;;-0.10;83.90;;;;;;5054024;28;20086;-73
2021/12/19 05:16:49;;;;;;;36.15;17.35;;;-0.10;84.20;;;;;;5053514;28;20021;-73
2021/12/19 05:19:27;;;;;;;38.78;18.48;;;-0.30;85.40;;;;;;5053682;28;20588;-73
2021/12/19 05:21:56;;;;;;;36.38;17.95;;;-0.40;84.90;;;;;;5053717;28;20094;-74
2021/12/19 05:24:46;;;;;;;33.55;16.83;;;-0.30;85.10;;;;;;5053452;28;20013;-73
2021/12/19 05:27:11;;;;;;;36.95;17.35;;;-0.20;84.90;;;;;;5053238;28;20070;-73
2021/12/19 05:29:37;;;;;;;34.35;16.88;;;-0.20;84.70;;;;;;5053290;28;20017;-73
2021/12/19 05:32:04;;;;;;;37.85;18.20;;;-0.20;84.50;;;;;;5053322;28;20492;-73
2021/12/19 05:34:30;;;;;;;38.05;18.10;;;-0.10;84.60;;;;;;5053225;28;20037;-74
2021/12/19 05:47:36;;;;;;;43.40;19.73;;;-0.10;84.80;;;;;;5053023;28;20017;-73
2021/12/19 05:50:03;;;;;;;39.47;18.67;;;-0.20;85.00;;;;;;5053168;28;20024;-73
2021/12/19 05:52:29;;;;;;;36.05;17.50;;;-0.30;85.20;;;;;;5035130;28;20028;-74
2021/12/19 05:54:54;;;;;;;42.75;19.55;;;-0.30;85.40;;;;;;5053071;28;20025;-73
2021/12/19 05:57:20;;;;;;;40.03;18.73;;;-0.30;85.60;;;;;;5053049;28;20062;-73
2021/12/19 05:59:45;;;;;;;39.20;18.88;;;-0.30;85.50;;;;;;5053148;28;20466;-74
2021/12/19 06:02:11;;;;;;;41.00;18.52;;;-0.30;85.10;;;;;;5052890;28;20041;-73
2021/12/19 06:04:37;;;;;;;37.40;18.13;;;-0.30;85.00;;;;;;5052932;28;20094;-74
2021/12/19 06:07:02;;;;;;;28.75;14.63;;;-0.30;84.80;;;;;;5052968;28;20032;-74
2021/12/19 06:09:28;;;;;;;29.45;14.45;;;-0.40;84.00;;;;;;5052723;28;20543;-72
2021/12/19 06:11:54;;;;;;;25.27;11.95;;;-0.40;83.40;;;;;;5052742;28;20028;-73
2021/12/19 06:14:19;;;;;;;23.80;11.65;;;-0.50;82.50;;;;;;5034903;28;20389;-73
2021/12/19 06:16:45;;;;;;;24.77;12.50;;;-0.50;82.50;;;;;;5052866;28;20035;-73
2021/12/19 06:19:10;;;;;;;25.63;13.20;;;-0.50;82.50;;;;;;5052967;28;20025;-74
2021/12/19 06:21:36;;;;;;;28.88;14.30;;;-0.40;82.30;;;;;;5052744;28;20037;-74
2021/12/19 06:24:02;;;;;;;26.88;13.85;;;-0.50;82.10;;;;;;5056407;28;20466;-75
2021/12/19 06:26:27;;;;;;;30.02;14.50;;;-0.40;82.00;;;;;;5056970;28;20037;-74
2021/12/19 06:28:53;;;;;;;24.88;12.82;;;-0.40;82.00;;;;;;5056786;28;20043;-75
2021/12/19 06:31:18;;;;;;;26.48;12.90;;;-0.30;81.60;;;;;;5056995;28;20036;-74
2021/12/19 06:33:44;;;;;;;26.00;13.18;;;-0.40;81.30;;;;;;5056765;28;20037;-74
2021/12/19 06:36:10;;;;;;;24.00;12.73;;;-0.30;81.30;;;;;;5056713;28;20390;-74
2021/12/19 06:38:36;;;;;;;21.08;11.07;;;-0.40;80.70;;;;;;5056776;28;20377;-74
2021/12/19 06:41:01;;;;;;;22.80;12.10;;;-0.40;80.30;;;;;;5056706;28;20495;-75
2021/12/19 06:43:30;;;;;;;22.63;11.73;;;-0.40;79.50;;;;;;5056578;28;20542;-74
2021/12/19 06:45:56;;;;;;;23.38;12.18;;;-0.50;79.20;;;;;;5056614;28;20017;-74
2021/12/19 06:48:24;;;;;;;29.55;14.60;;;-0.60;79.50;;;;;;5056525;28;20122;-75
2021/12/19 06:50:50;;;;;;;37.45;17.95;;;-0.70;80.50;;;;;;5056465;28;20373;-75
2021/12/19 06:53:16;;;;;;;36.55;17.73;;;-0.70;81.20;;;;;;5056095;28;20098;-74
2021/12/19 06:55:41;;;;;;;40.33;19.63;;;-0.60;82.10;;;;;;5055443;28;20493;-76
2021/12/19 06:58:07;;;;;;;41.95;19.92;;;-0.70;82.70;;;;;;5055700;28;20039;-74
2021/12/19 07:00:33;;;;;;;36.33;17.40;;;-0.60;83.10;;;;;;5020869;28;20044;-74
2021/12/19 07:02:58;;;;;;;60.08;20.90;;;-0.70;83.20;;;;;;5055291;28;20032;-74
2021/12/19 07:05:24;;;;;;;36.80;18.08;;;-0.60;83.40;;;;;;5038259;28;20083;-75
2021/12/19 07:07:49;;;;;;;54.45;19.88;;;-0.70;83.40;;;;;;5038253;28;20025;-74
2021/12/19 07:10:15;;;;;;;64.05;21.75;;;-0.80;84.20;;;;;;5038307;28;20017;-74
2021/12/19 07:12:41;;;;;;;52.05;20.88;;;-1.00;85.20;;;;;;5038077;28;20119;-74
2021/12/19 07:15:09;;;;;;;63.08;21.42;;;-1.10;85.80;;;;;;5038214;28;20021;-74
2021/12/19 07:17:34;;;;;;;44.25;20.73;;;-1.10;86.40;;;;;;5056065;28;20055;-74
2021/12/19 07:20:00;;;;;;;43.40;19.67;;;-1.10;86.50;;;;;;5038096;28;20056;-73
2021/12/19 07:22:26;;;;;;;48.08;21.60;;;-1.00;86.70;;;;;;5037889;28;20036;-74
2021/12/19 07:24:51;;;;;;;40.50;18.88;;;-1.00;86.80;;;;;;5037993;28;20021;-74
2021/12/19 07:27:17;;;;;;;38.15;18.02;;;-0.90;87.10;;;;;;5038048;28;20362;-75
2021/12/19 07:29:43;;;;;;;43.00;19.05;;;-0.80;87.00;;;;;;5037823;28;20029;-75
2021/12/19 07:32:11;;;;;;;43.90;20.58;;;-0.70;86.90;;;;;;5037923;28;20025;-74
2021/12/19 07:34:37;;;;;;;40.88;19.30;;;-0.70;86.70;;;;;;5037286;28;20175;-74
2021/12/19 07:37:03;;;;;;;47.60;20.00;;;-0.60;86.50;;;;;;5037822;28;20496;-74
2021/12/19 07:42:02;;;;;;;40.75;19.27;;;-0.60;85.60;;;;;;5055600;28;20465;-73
2021/12/19 07:44:28;;;;;;;40.17;19.30;;;-0.50;85.60;;;;;;5037522;28;20083;-73
2021/12/19 07:46:53;;;;;;;43.13;18.92;;;-0.50;85.40;;;;;;5037759;28;20465;-73
2021/12/19 07:49:19;;;;;;;40.25;17.60;;;-0.40;84.50;;;;;;5037205;28;20017;-73
2021/12/19 07:51:44;;;;;;;44.38;19.45;;;-0.40;83.90;;;;;;5037624;28;20083;-74
2021/12/19 07:54:10;;;;;;;38.03;18.77;;;-0.40;83.20;;;;;;5037505;28;20541;-73
2021/12/19 07:56:36;;;;;;;33.08;16.02;;;-0.40;83.10;;;;;;5037366;28;20029;-73
2021/12/19 07:59:02;;;;;;;33.65;16.27;;;-0.40;83.30;;;;;;5037339;28;20071;-73
2021/12/19 08:01:27;;;;;;;31.45;17.02;;;-0.30;83.60;;;;;;5037133;28;20128;-73
2021/12/19 08:03:53;;;;;;;30.13;15.93;;;-0.20;83.10;;;;;;5037141;28;20112;-72
2021/12/19 08:06:19;;;;;;;33.30;17.27;;;-0.10;82.80;;;;;;5037222;28;20029;-73
2021/12/19 08:08:52;;;;;;;33.47;18.33;;;0.00;82.70;;;;;;5054940;28;20029;-73
2021/12/19 08:14:03;;;;;;;34.63;18.25;;;0.20;81.50;;;;;;5054977;28;20070;-72
2021/12/19 08:16:29;;;;;;;33.53;16.52;;;0.20;80.70;;;;;;5054866;28;20037;-72
2021/12/19 08:18:54;;;;;;;30.05;15.65;;;0.30;80.20;;;;;;5054718;28;20025;-72
2021/12/19 08:21:20;;;;;;;30.70;14.98;;;0.40;79.90;;;;;;5036919;28;20257;-72
2021/12/19 08:23:46;;;;;;;26.85;13.88;;;0.50;79.60;;;;;;5054795;28;20359;-73
2021/12/19 08:26:12;;;;;;;25.15;12.10;;;0.60;79.30;;;;;;5054786;28;20025;-73
2021/12/19 08:28:38;;;;;;;31.95;16.80;;;0.80;79.00;;;;;;5054639;28;20029;-73
2021/12/19 08:31:04;;;;;;;33.80;17.85;;;0.80;77.10;;;;;;5054740;28;20067;-73
2021/12/19 08:33:30;;;;;;;40.65;20.35;;;0.90;77.10;;;;;;5054413;28;20183;-72
2021/12/19 08:35:59;;;;;;;39.53;18.42;;;0.80;77.10;;;;;;5054524;28;20032;-73
2021/12/19 08:38:25;;;;;;;34.72;17.80;;;0.90;77.30;;;;;;5054562;28;20066;-73
2021/12/19 08:40:51;;;;;;;35.58;18.90;;;1.10;77.40;;;;;;5054431;28;20029;-73
2021/12/19 08:43:18;;;;;;;40.72;19.83;;;1.20;76.70;;;;;;5054385;28;20112;-73
2021/12/19 08:45:43;;;;;;;31.95;18.23;;;1.30;76.60;;;;;;5053461;28;20492;-73
2021/12/19 08:48:09;;;;;;;30.02;16.85;;;1.50;76.20;;;;;;5054343;28;20037;-73
2021/12/19 08:50:35;;;;;;;30.00;16.80;;;1.50;75.20;;;;;;5054261;28;20021;-73
2021/12/19 08:53:01;;;;;;;30.23;16.00;;;1.70;74.90;;;;;;5054232;28;20040;-74
2021/12/19 08:55:27;;;;;;;26.77;14.70;;;1.80;74.50;;;;;;5054181;28;20021;-74
2021/12/19 08:57:53;;;;;;;27.30;14.07;;;2.00;73.90;;;;;;5054317;28;20495;-74
2021/12/19 09:00:20;;;;;;;27.25;15.57;;;2.30;73.50;;;;;;5053996;28;20031;-74
2021/12/19 09:02:50;;;;;;;28.75;16.15;;;2.50;71.50;;;;;;5054047;28;20021;-73
2021/12/19 09:05:16;;;;;;;26.08;13.82;;;2.70;70.10;;;;;;5054031;28;20104;-73
2021/12/19 09:07:42;;;;;;;23.38;12.90;;;3.00;69.50;;;;;;5053799;28;20450;-73
2021/12/19 09:10:08;;;;;;;22.85;12.88;;;3.30;68.60;;;;;;5053933;28;20053;-74
2021/12/19 09:12:34;;;;;;;25.63;13.95;;;3.50;67.00;;;;;;5053692;28;20029;-73
2021/12/19 09:15:00;;;;;;;24.85;14.60;;;3.80;66.10;;;;;;5053706;28;20024;-75
2021/12/19 09:17:26;;;;;;;26.35;15.80;;;4.10;66.20;;;;;;5053426;28;20107;-74
2021/12/19 09:19:51;;;;;;;21.65;13.77;;;4.20;64.90;;;;;;5053663;28;20056;-74
2021/12/19 09:22:17;;;;;;;24.95;14.07;;;4.40;64.00;;;;;;5053616;28;20174;-74
2021/12/19 09:24:43;;;;;;;23.98;14.27;;;4.50;63.50;;;;;;5053327;28;20021;-75
2021/12/19 09:27:09;;;;;;;22.88;13.35;;;4.80;63.00;;;;;;5053150;28;20043;-75
2021/12/19 09:29:35;;;;;;;21.67;12.55;;;5.20;62.20;;;;;;5053191;28;20481;-76
2021/12/19 09:32:02;;;;;;;22.17;12.50;;;5.50;60.40;;;;;;5035595;28;20051;-77
2021/12/19 09:34:29;;;;;;;18.33;10.88;;;5.80;61.00;;;;;;5035115;28;20135;-73
2021/12/19 09:36:56;;;;;;;16.75;10.55;;;6.10;61.00;;;;;;5035271;28;20025;-73
2021/12/19 09:39:23;;;;;;;16.75;11.40;;;6.30;57.60;;;;;;5053296;28;20033;-74
2021/12/19 09:41:54;;;;;;;17.77;11.18;;;6.40;55.10;;;;;;5053063;28;20060;-74
2021/12/19 09:44:20;;;;;;;19.83;11.38;;;6.30;54.00;;;;;;5053744;28;20040;-74
2021/12/19 09:46:47;;;;;;;18.67;10.95;;;6.20;53.80;;;;;;5053991;28;20104;-74
2021/12/19 09:49:15;;;;;;;17.60;10.93;;;6.20;54.20;;;;;;5053171;28;20128;-74
2021/12/19 09:51:42;;;;;;;16.67;10.30;;;6.20;54.40;;;;;;5035140;28;20024;-75
2021/12/19 09:54:09;;;;;;;17.70;11.48;;;6.30;55.00;;;;;;5053237;28;20020;-75
2021/12/19 09:56:36;;;;;;;18.25;11.65;;;6.40;55.40;;;;;;5056011;28;20025;-75
2021/12/19 09:59:15;;;;;;;19.95;12.45;;;6.40;54.40;;;;;;5055896;28;20074;-74
2021/12/19 10:01:42;;;;;;;19.08;12.35;;;6.60;54.70;;;;;;5034825;28;20037;-74
2021/12/19 10:04:33;;;;;;;18.80;13.10;;;6.80;53.90;;;;;;5052672;28;20018;-73
2021/12/19 10:07:10;;;;;;;19.48;13.13;;;6.90;53.50;;;;;;5052722;28;20016;-73
2021/12/19 10:09:40;;;;;;;20.13;12.43;;;7.10;53.10;;;;;;5052707;28;20040;-73
2021/12/19 10:12:50;;;;;;;18.83;12.25;;;7.30;52.30;;;;;;5052225;28;20021;-73
2021/12/19 10:15:25;;;;;;;18.35;12.52;;;7.50;51.50;;;;;;5031424;28;20037;-73
2021/12/19 10:18:04;;;;;;;20.08;12.60;;;7.70;51.10;;;;;;5032823;28;20564;-74
2021/12/19 10:20:46;;;;;;;19.55;12.50;;;7.90;50.20;;;;;;5032635;28;20470;-73
2021/12/19 10:23:15;;;;;;;21.30;13.07;;;8.10;50.00;;;;;;5032674;28;20124;-73
2021/12/19 10:25:41;;;;;;;21.80;12.27;;;8.40;49.20;;;;;;5032657;28;20045;-73
2021/12/19 10:28:09;;;;;;;17.50;11.82;;;8.60;48.50;;;;;;5032692;28;20017;-73
2021/12/19 10:30:43;;;;;;;16.38;11.32;;;8.80;47.90;;;;;;5032543;28;20048;-73
2021/12/19 10:33:19;;;;;;;18.55;12.38;;;9.00;47.30;;;;;;5032468;28;20041;-74
2021/12/19 10:35:50;;;;;;;19.08;12.40;;;9.30;46.90;;;;;;5032641;28;20374;-74
2021/12/19 10:38:25;;;;;;;18.75;12.10;;;9.70;46.00;;;;;;5032637;28;20021;-73
2021/12/19 10:40:53;;;;;;;17.33;11.35;;;9.80;45.00;;;;;;5032470;28;20033;-73
2021/12/19 10:43:20;;;;;;;17.83;11.15;;;10.10;44.80;;;;;;5047702;28;20038;-73
2021/12/19 10:45:47;;;;;;;17.48;11.55;;;10.40;43.60;;;;;;5032415;28;20097;-74
2021/12/19 10:48:12;;;;;;;18.40;10.35;;;10.70;43.00;;;;;;5047858;28;20053;-74
2021/12/19 10:50:48;;;;;;;16.20;10.60;;;11.10;42.50;;;;;;5032380;28;20431;-74
2021/12/19 10:53:15;;;;;;;16.65;10.00;;;11.40;41.40;;;;;;5032487;28;20482;-75
2021/12/19 10:55:44;;;;;;;17.17;10.63;;;11.70;40.50;;;;;;5032461;28;20051;-76
2021/12/19 10:58:36;;;;;;;16.42;11.52;;;12.00;39.10;;;;;;5050890;28;20474;-77
2021/12/19 11:01:29;;;;;;;14.48;10.43;;;12.30;38.60;;;;;;5050951;28;20048;-75
2021/12/19 11:04:09;;;;;;;14.77;9.82;;;12.90;37.60;;;;;;5050059;28;20024;-74
2021/12/19 11:06:46;;;;;;;13.45;9.52;;;13.60;36.20;;;;;;5050359;28;20079;-75
2021/12/19 11:09:29;;;;;;;13.32;9.38;;;14.50;34.70;;;;;;5054147;28;20063;-75
2021/12/19 11:12:06;;;;;;;15.82;10.50;;;15.20;33.10;;;;;;5056022;28;20020;-75
2021/12/19 11:14:39;;;;;;;63.72;22.85;;;15.80;31.80;;;;;;5037870;28;20028;-74
2021/12/19 11:17:15;;;;;;;35.42;15.63;;;16.70;31.20;;;;;;5055645;28;20024;-74
2021/12/19 11:19:41;;;;;;;28.65;13.80;;;17.70;30.30;;;;;;5055651;28;20108;-76
2021/12/19 11:22:08;;;;;;;16.58;11.38;;;18.60;27.70;;;;;;5055675;28;20569;-76
2021/12/19 11:24:34;;;;;;;24.63;13.38;;;19.10;25.90;;;;;;5055629;28;20079;-78
2021/12/19 11:27:04;;;;;;;29.35;13.02;;;19.60;24.80;;;;;;5037728;28;20017;-75
2021/12/19 11:29:30;;;;;;;18.55;12.18;;;20.40;24.20;;;;;;5055576;28;20025;-74
2021/12/19 11:31:59;;;;;;;17.60;12.13;;;20.70;22.40;;;;;;5055599;28;20096;-77
2021/12/19 11:34:48;;;;;;;17.15;12.00;;;20.90;21.90;;;;;;5054965;28;20037;-75
2021/12/19 11:37:18;;;;;;;18.65;12.45;;;21.60;21.30;;;;;;5054920;28;20056;-75
2021/12/19 11:39:51;;;;;;;15.30;10.50;;;22.50;20.30;;;;;;5054913;28;20032;-75
2021/12/19 11:42:21;;;;;;;16.23;11.38;;;23.10;19.40;;;;;;5054005;28;20032;-75
2021/12/19 11:45:11;;;;;;;13.15;10.38;;;23.80;18.50;;;;;;5054790;28;20017;-75
2021/12/19 11:47:52;;;;;;;13.90;9.55;;;24.30;17.60;;;;;;5055146;28;20029;-75
2021/12/19 11:50:27;;;;;;;17.38;12.05;;;24.90;17.00;;;;;;5055029;28;20037;-75
2021/12/19 11:53:08;;;;;;;12.98;9.93;;;25.50;16.20;;;;;;5055156;28;20074;-76
2021/12/19 11:55:39;;;;;;;13.00;10.63;;;26.20;15.60;;;;;;5054834;28;20025;-76
2021/12/19 11:58:07;;;;;;;12.65;9.23;;;26.50;14.80;;;;;;5055022;28;20025;-73
2021/12/19 12:00:56;;;;;;;11.75;9.05;;;26.90;14.30;;;;;;5054829;28;20473;-77
2021/12/19 12:03:27;;;;;;;12.73;8.70;;;27.30;14.10;;;;;;5054923;28;20039;-77
2021/12/19 12:06:21;;;;;;;13.32;9.00;;;27.90;13.60;;;;;;5054974;28;20017;-76
2021/12/19 12:09:11;;;;;;;11.55;8.80;;;28.40;13.30;;;;;;5054859;28;20025;-73
2021/12/19 12:11:57;;;;;;;10.10;8.27;;;28.90;12.80;;;;;;5054740;28;20043;-73
2021/12/19 12:14:29;;;;;;;12.57;9.38;;;29.30;12.60;;;;;;5054880;28;20032;-77
2021/12/19 12:17:02;;;;;;;9.85;8.57;;;29.80;12.00;;;;;;5054934;28;20112;-77
2021/12/19 12:19:49;;;;;;;9.80;7.80;;;30.30;11.70;;;;;;5054376;28;20040;-74
2021/12/19 12:22:24;;;;;;;11.45;7.03;;;31.10;12.10;;;;;;5054616;28;20025;-74
2021/12/19 12:25:27;;;;;;;19.13;8.95;;;31.80;11.30;;;;;;5054692;28;20461;-76
2021/12/19 12:28:03;;;;;;;8.70;7.80;;;32.50;10.40;;;;;;5054517;28;20252;-74
2021/12/19 12:30:48;;;;;;;8.77;7.65;;;33.00;9.80;;;;;;5054560;28;20021;-73
2021/12/19 12:33:16;;;;;;;11.25;7.03;;;33.60;9.00;;;;;;5054801;28;20124;-74
2021/12/19 12:35:45;;;;;;;10.73;6.70;;;34.00;8.90;;;;;;5054547;28;20481;-74
2021/12/19 12:38:12;;;;;;;9.38;5.78;;;34.30;9.40;;;;;;5036656;28;20025;-75
2021/12/19 12:41:01;;;;;;;6.57;5.88;;;34.70;8.40;;;;;;5054451;28;20488;-74
2021/12/19 12:43:31;;;;;;;5.95;5.35;;;35.10;8.40;;;;;;5054416;28;20032;-74
2021/12/19 12:46:07;;;;;;;7.47;5.13;;;35.30;7.80;;;;;;5054377;28;20028;-74
2021/12/19 12:49:00;;;;;;;5.57;5.07;;;35.70;7.60;;;;;;5054039;28;20133;-74
2021/12/19 12:51:36;;;;;;;6.35;5.30;;;36.00;7.60;;;;;;5054172;28;20119;-74
2021/12/19 12:54:14;;;;;;;5.00;4.50;;;36.40;7.10;;;;;;5054865;28;20048;-75
2021/12/19 12:56:48;;;;;;;5.65;5.15;;;36.90;6.70;;;;;;5056016;28;20066;-72
2021/12/19 12:59:22;;;;;;;5.10;4.60;;;37.20;6.80;;;;;;5054461;28;20021;-72
2021/12/19 13:01:52;;;;;;;5.85;4.18;;;37.40;6.50;;;;;;5054130;28;20041;-73
2021/12/19 13:04:23;;;;;;;6.32;3.85;;;37.50;6.30;;;;;;5054028;28;20075;-72
2021/12/19 13:07:02;;;;;;;3.58;3.28;;;37.60;6.10;;;;;;5054024;28;20489;-76
2021/12/19 13:09:44;;;;;;;3.60;3.30;;;37.70;6.00;;;;;;5053908;28;20017;-79
2021/12/19 13:12:20;;;;;;;6.75;3.40;;;37.40;6.10;;;;;;5054254;28;20032;-77
2021/12/19 13:14:48;;;;;;;3.20;3.00;;;37.20;6.40;;;;;;5053749;28;20021;-80
2021/12/19 13:17:21;;;;;;;5.10;3.60;;;37.30;6.40;;;;;;5036105;28;20032;-86
2021/12/19 13:19:49;;;;;;;10.48;4.25;;;37.50;6.30;;;;;;5053846;28;20377;-79
2021/12/19 13:22:26;;;;;;;7.70;4.85;;;37.70;6.30;;;;;;5053692;28;20036;-83
2021/12/19 13:24:55;;;;;;;16.73;6.10;;;36.60;6.30;;;;;;5053667;28;20060;-83
2021/12/19 13:27:26;;;;;;;29.63;7.22;;;36.30;6.70;;;;;;5053734;28;20033;-78
2021/12/19 13:30:05;;;;;;;7.20;5.07;;;36.50;6.80;;;;;;5053624;28;20031;-76
2021/12/19 13:32:36;;;;;;;5.38;4.80;;;36.30;6.90;;;;;;5053017;28;20025;-79
2021/12/19 13:35:05;;;;;;;5.53;4.97;;;36.40;6.70;;;;;;5053349;28;20386;-79
2021/12/19 13:37:33;;;;;;;6.18;5.35;;;35.80;6.50;;;;;;5053229;28;20275;-81
2021/12/19 13:40:08;;;;;;;6.00;5.40;;;35.10;7.30;;;;;;5053367;28;20383;-77
2021/12/19 13:42:38;;;;;;;;;;;34.80;7.30;;;;;;5053521;28;20119;-80
2021/12/19 13:45:29;;;;;;;6.15;5.55;;;34.20;8.00;;;;;;5053263;28;19911;-78
2021/12/19 13:47:56;;;;;;;6.10;5.47;;;33.80;8.10;;;;;;5053273;28;20086;-78
2021/12/19 13:50:23;;;;;;;9.10;5.93;;;33.50;8.40;;;;;;5053080;28;20075;-76